sensor_id;sensor_type;location;lat;lon;timestamp;pressure;altitude;pressure_sealevel;temperature;humidity
36386;BME280;24125;47.482;8.770;2023-04-15T00:02:18;95280.06;;;6.23;68.80
36386;BME280;24125;47.482;8.770;2023-04-15T00:04:51;95278.38;;;6.18;69.30
36386;BME280;24125;47.482;8.770;2023-04-15T00:07:25;95285.06;;;6.16;69.76
36386;BME280;24125;47.482;8.770;2023-04-15T00:10:00;95284.97;;;6.12;69.25
36386;BME280;24125;47.482;8.770;2023-04-15T00:12:34;95278.72;;;6.08;69.68
36386;BME280;24125;47.482;8.770;2023-04-15T00:15:07;95281.25;;;6.04;69.65
36386;BME280;24125;47.482;8.770;2023-04-15T00:17:40;95284.22;;;6.03;69.47
36386;BME280;24125;47.482;8.770;2023-04-15T00:20:13;95284.38;;;5.98;69.56
36386;BME280;24125;47.482;8.770;2023-04-15T00:22:47;95282.38;;;5.95;69.96
36386;BME280;24125;47.482;8.770;2023-04-15T00:25:20;95285.63;;;5.92;69.95
36386;BME280;24125;47.482;8.770;2023-04-15T00:27:52;95275.97;;;5.87;69.88
36386;BME280;24125;47.482;8.770;2023-04-15T00:30:25;95280.03;;;5.85;69.91
36386;BME280;24125;47.482;8.770;2023-04-15T00:32:59;95275.34;;;5.82;69.72
36386;BME280;24125;47.482;8.770;2023-04-15T00:35:34;95276.78;;;5.79;69.64
36386;BME280;24125;47.482;8.770;2023-04-15T00:38:08;95273.97;;;5.76;69.54
36386;BME280;24125;47.482;8.770;2023-04-15T00:40:41;95271.63;;;5.74;69.74
36386;BME280;24125;47.482;8.770;2023-04-15T00:43:14;95272.25;;;5.71;69.39
36386;BME280;24125;47.482;8.770;2023-04-15T00:45:47;95274.47;;;5.69;70.08
36386;BME280;24125;47.482;8.770;2023-04-15T00:48:21;95265.59;;;5.65;69.57
36386;BME280;24125;47.482;8.770;2023-04-15T00:50:54;95281.00;;;5.63;70.03
36386;BME280;24125;47.482;8.770;2023-04-15T00:53:28;95264.97;;;5.59;70.11
36386;BME280;24125;47.482;8.770;2023-04-15T00:56:01;95272.94;;;5.59;70.32
36386;BME280;24125;47.482;8.770;2023-04-15T00:58:34;95275.09;;;5.57;70.66
36386;BME280;24125;47.482;8.770;2023-04-15T01:01:07;95271.97;;;5.55;70.40
36386;BME280;24125;47.482;8.770;2023-04-15T01:03:40;95278.06;;;5.56;70.48
36386;BME280;24125;47.482;8.770;2023-04-15T01:06:13;95274.94;;;5.54;70.64
36386;BME280;24125;47.482;8.770;2023-04-15T01:08:48;95277.94;;;5.52;70.65
36386;BME280;24125;47.482;8.770;2023-04-15T01:11:20;95284.00;;;5.53;70.82
36386;BME280;24125;47.482;8.770;2023-04-15T01:13:55;95285.41;;;5.50;70.59
36386;BME280;24125;47.482;8.770;2023-04-15T01:16:30;95278.53;;;5.49;70.29
36386;BME280;24125;47.482;8.770;2023-04-15T01:19:03;95293.97;;;5.47;70.46
36386;BME280;24125;47.482;8.770;2023-04-15T01:21:35;95283.38;;;5.47;70.47
36386;BME280;24125;47.482;8.770;2023-04-15T01:24:10;95280.25;;;5.45;70.45
36386;BME280;24125;47.482;8.770;2023-04-15T01:26:44;95282.16;;;5.45;70.65
36386;BME280;24125;47.482;8.770;2023-04-15T01:29:17;95286.19;;;5.42;70.69
36386;BME280;24125;47.482;8.770;2023-04-15T01:31:50;95279.34;;;5.41;70.24
36386;BME280;24125;47.482;8.770;2023-04-15T01:34:24;95285.72;;;5.40;70.66
36386;BME280;24125;47.482;8.770;2023-04-15T01:36:56;95283.06;;;5.40;70.90
36386;BME280;24125;47.482;8.770;2023-04-15T01:39:29;95281.03;;;5.37;70.61
36386;BME280;24125;47.482;8.770;2023-04-15T01:42:03;95282.16;;;5.36;70.81
36386;BME280;24125;47.482;8.770;2023-04-15T01:44:36;95289.75;;;5.38;70.94
36386;BME280;24125;47.482;8.770;2023-04-15T01:47:09;95291.19;;;5.35;70.83
36386;BME280;24125;47.482;8.770;2023-04-15T01:49:42;95292.28;;;5.34;70.68
36386;BME280;24125;47.482;8.770;2023-04-15T01:52:15;95293.34;;;5.33;70.79
36386;BME280;24125;47.482;8.770;2023-04-15T01:54:48;95298.19;;;5.31;70.73
36386;BME280;24125;47.482;8.770;2023-04-15T01:57:22;95296.00;;;5.33;71.03
36386;BME280;24125;47.482;8.770;2023-04-15T01:59:55;95299.44;;;5.34;71.38
36386;BME280;24125;47.482;8.770;2023-04-15T02:02:28;95301.78;;;5.35;71.72
36386;BME280;24125;47.482;8.770;2023-04-15T02:05:01;95300.34;;;5.38;71.80
36386;BME280;24125;47.482;8.770;2023-04-15T02:07:35;95285.25;;;5.38;72.09
36386;BME280;24125;47.482;8.770;2023-04-15T02:10:08;95288.53;;;5.44;72.36
36386;BME280;24125;47.482;8.770;2023-04-15T02:12:43;95283.38;;;5.47;72.11
36386;BME280;24125;47.482;8.770;2023-04-15T02:15:16;95286.66;;;5.53;72.80
36386;BME280;24125;47.482;8.770;2023-04-15T02:17:48;95285.38;;;5.59;73.04
36386;BME280;24125;47.482;8.770;2023-04-15T02:20:23;95289.88;;;5.67;73.11
36386;BME280;24125;47.482;8.770;2023-04-15T02:22:55;95290.47;;;5.73;73.51
36386;BME280;24125;47.482;8.770;2023-04-15T02:25:28;95291.72;;;5.84;73.22
36386;BME280;24125;47.482;8.770;2023-04-15T02:28:03;95288.28;;;5.92;73.72
36386;BME280;24125;47.482;8.770;2023-04-15T02:30:36;95290.91;;;6.00;74.00
36386;BME280;24125;47.482;8.770;2023-04-15T02:33:11;95289.00;;;6.10;74.23
36386;BME280;24125;47.482;8.770;2023-04-15T02:35:43;95290.53;;;6.19;74.43
36386;BME280;24125;47.482;8.770;2023-04-15T02:38:16;95284.09;;;6.29;74.39
36386;BME280;24125;47.482;8.770;2023-04-15T02:40:49;95297.44;;;6.41;74.63
36386;BME280;24125;47.482;8.770;2023-04-15T02:43:23;95293.22;;;6.49;74.67
36386;BME280;24125;47.482;8.770;2023-04-15T02:45:56;95296.56;;;6.58;74.86
36386;BME280;24125;47.482;8.770;2023-04-15T02:48:29;95295.44;;;6.67;74.83
36386;BME280;24125;47.482;8.770;2023-04-15T02:51:12;95299.13;;;6.75;74.57
36386;BME280;24125;47.482;8.770;2023-04-15T02:53:45;95297.19;;;6.84;74.32
36386;BME280;24125;47.482;8.770;2023-04-15T02:56:17;95299.00;;;6.92;74.33
36386;BME280;24125;47.482;8.770;2023-04-15T02:58:51;95294.00;;;6.99;74.03
36386;BME280;24125;47.482;8.770;2023-04-15T03:01:26;95292.38;;;7.07;74.35
36386;BME280;24125;47.482;8.770;2023-04-15T03:03:59;95296.38;;;7.13;74.18
36386;BME280;24125;47.482;8.770;2023-04-15T03:06:47;95298.50;;;7.19;73.89
36386;BME280;24125;47.482;8.770;2023-04-15T03:09:20;95305.63;;;7.28;74.05
36386;BME280;24125;47.482;8.770;2023-04-15T03:11:52;95309.66;;;7.34;73.78
36386;BME280;24125;47.482;8.770;2023-04-15T03:14:26;95299.59;;;7.39;73.81
36386;BME280;24125;47.482;8.770;2023-04-15T03:16:59;95299.41;;;7.44;74.04
36386;BME280;24125;47.482;8.770;2023-04-15T03:19:32;95303.09;;;7.52;73.93
36386;BME280;24125;47.482;8.770;2023-04-15T03:22:04;95285.41;;;7.56;74.32
36386;BME280;24125;47.482;8.770;2023-04-15T03:24:37;95295.81;;;7.61;74.09
36386;BME280;24125;47.482;8.770;2023-04-15T03:27:10;95286.56;;;7.67;74.44
36386;BME280;24125;47.482;8.770;2023-04-15T03:29:44;95289.00;;;7.72;74.29
36386;BME280;24125;47.482;8.770;2023-04-15T03:32:17;95285.03;;;7.78;73.84
36386;BME280;24125;47.482;8.770;2023-04-15T03:34:50;95281.72;;;7.81;73.85
36386;BME280;24125;47.482;8.770;2023-04-15T03:37:23;95276.53;;;7.85;73.86
36386;BME280;24125;47.482;8.770;2023-04-15T03:39:55;95280.84;;;7.89;73.86
36386;BME280;24125;47.482;8.770;2023-04-15T03:42:28;95280.66;;;7.94;73.84
36386;BME280;24125;47.482;8.770;2023-04-15T03:45:02;95284.19;;;7.99;73.52
36386;BME280;24125;47.482;8.770;2023-04-15T03:47:35;95283.97;;;8.04;73.96
36386;BME280;24125;47.482;8.770;2023-04-15T03:50:08;95282.53;;;8.06;73.94
36386;BME280;24125;47.482;8.770;2023-04-15T03:52:42;95281.56;;;8.11;73.73
36386;BME280;24125;47.482;8.770;2023-04-15T03:55:15;95287.31;;;8.13;73.75
36386;BME280;24125;47.482;8.770;2023-04-15T03:57:48;95286.66;;;8.16;73.97
36386;BME280;24125;47.482;8.770;2023-04-15T04:00:22;95279.91;;;8.18;73.56
36386;BME280;24125;47.482;8.770;2023-04-15T04:02:55;95285.31;;;8.22;73.34
36386;BME280;24125;47.482;8.770;2023-04-15T04:05:29;95288.41;;;8.24;73.63
36386;BME280;24125;47.482;8.770;2023-04-15T04:08:01;95282.44;;;8.27;73.45
36386;BME280;24125;47.482;8.770;2023-04-15T04:10:34;95291.66;;;8.29;73.57
36386;BME280;24125;47.482;8.770;2023-04-15T04:13:07;95297.09;;;8.33;73.18
36386;BME280;24125;47.482;8.770;2023-04-15T04:15:41;95294.13;;;8.35;73.40
36386;BME280;24125;47.482;8.770;2023-04-15T04:18:14;95286.13;;;8.35;73.56
36386;BME280;24125;47.482;8.770;2023-04-15T04:20:47;95287.38;;;8.37;73.59
36386;BME280;24125;47.482;8.770;2023-04-15T04:23:19;95287.78;;;8.39;73.61
36386;BME280;24125;47.482;8.770;2023-04-15T04:25:52;95289.69;;;8.39;73.30
36386;BME280;24125;47.482;8.770;2023-04-15T04:28:25;95293.88;;;8.40;72.96
36386;BME280;24125;47.482;8.770;2023-04-15T04:30:59;95285.59;;;8.41;73.21
36386;BME280;24125;47.482;8.770;2023-04-15T04:33:32;95286.69;;;8.40;72.86
36386;BME280;24125;47.482;8.770;2023-04-15T04:36:05;95292.00;;;8.40;72.64
36386;BME280;24125;47.482;8.770;2023-04-15T04:38:38;95286.69;;;8.40;72.69
36386;BME280;24125;47.482;8.770;2023-04-15T04:41:10;95293.88;;;8.40;72.85
36386;BME280;24125;47.482;8.770;2023-04-15T04:43:43;95287.47;;;8.41;72.96
36386;BME280;24125;47.482;8.770;2023-04-15T04:46:18;95296.22;;;8.41;72.85
36386;BME280;24125;47.482;8.770;2023-04-15T04:48:51;95299.66;;;8.42;72.95
36386;BME280;24125;47.482;8.770;2023-04-15T04:51:23;95298.56;;;8.43;73.03
36386;BME280;24125;47.482;8.770;2023-04-15T04:53:57;95293.22;;;8.43;73.17
36386;BME280;24125;47.482;8.770;2023-04-15T04:56:32;95301.66;;;8.45;73.32
36386;BME280;24125;47.482;8.770;2023-04-15T04:59:06;95302.44;;;8.45;73.43
36386;BME280;24125;47.482;8.770;2023-04-15T05:01:40;95307.06;;;8.48;73.39
36386;BME280;24125;47.482;8.770;2023-04-15T05:04:13;95303.31;;;8.49;73.45
36386;BME280;24125;47.482;8.770;2023-04-15T05:06:46;95312.53;;;8.52;73.50
36386;BME280;24125;47.482;8.770;2023-04-15T05:09:19;95304.22;;;8.53;73.73
36386;BME280;24125;47.482;8.770;2023-04-15T05:11:51;95308.53;;;8.58;73.38
36386;BME280;24125;47.482;8.770;2023-04-15T05:14:24;95299.88;;;8.61;73.66
36386;BME280;24125;47.482;8.770;2023-04-15T05:16:58;95304.19;;;8.65;74.06
36386;BME280;24125;47.482;8.770;2023-04-15T05:19:31;95305.88;;;8.70;73.79
36386;BME280;24125;47.482;8.770;2023-04-15T05:22:04;95312.06;;;8.74;73.92
36386;BME280;24125;47.482;8.770;2023-04-15T05:24:37;95307.97;;;8.77;73.94
36386;BME280;24125;47.482;8.770;2023-04-15T05:27:10;95316.94;;;8.84;73.94
36386;BME280;24125;47.482;8.770;2023-04-15T05:29:42;95307.97;;;8.89;73.75
36386;BME280;24125;47.482;8.770;2023-04-15T05:32:17;95321.03;;;8.94;74.05
36386;BME280;24125;47.482;8.770;2023-04-15T05:34:50;95318.50;;;8.97;74.00
36386;BME280;24125;47.482;8.770;2023-04-15T05:37:23;95326.25;;;9.02;74.01
36386;BME280;24125;47.482;8.770;2023-04-15T05:39:55;95325.25;;;9.07;74.03
36386;BME280;24125;47.482;8.770;2023-04-15T05:42:28;95325.78;;;9.13;74.10
36386;BME280;24125;47.482;8.770;2023-04-15T05:45:01;95322.88;;;9.18;74.31
36386;BME280;24125;47.482;8.770;2023-04-15T05:47:37;95320.31;;;9.21;74.18
36386;BME280;24125;47.482;8.770;2023-04-15T05:50:10;95324.75;;;9.29;74.52
36386;BME280;24125;47.482;8.770;2023-04-15T05:52:42;95327.94;;;9.35;74.34
36386;BME280;24125;47.482;8.770;2023-04-15T05:55:16;95323.94;;;9.41;74.13
36386;BME280;24125;47.482;8.770;2023-04-15T05:57:48;95321.38;;;9.44;74.21
36386;BME280;24125;47.482;8.770;2023-04-15T06:00:21;95322.34;;;9.52;74.56
36386;BME280;24125;47.482;8.770;2023-04-15T06:02:56;95327.88;;;9.59;74.64
36386;BME280;24125;47.482;8.770;2023-04-15T06:05:29;95326.97;;;9.67;74.93
36386;BME280;24125;47.482;8.770;2023-04-15T06:08:02;95324.50;;;9.74;74.75
36386;BME280;24125;47.482;8.770;2023-04-15T06:10:34;95319.00;;;9.83;75.21
36386;BME280;24125;47.482;8.770;2023-04-15T06:13:07;95316.63;;;9.94;75.44
36386;BME280;24125;47.482;8.770;2023-04-15T06:15:40;95317.66;;;10.05;75.37
36386;BME280;24125;47.482;8.770;2023-04-15T06:18:14;95322.16;;;10.16;76.12
36386;BME280;24125;47.482;8.770;2023-04-15T06:20:47;95316.44;;;10.30;76.52
36386;BME280;24125;47.482;8.770;2023-04-15T06:23:20;95315.25;;;10.43;76.26
36386;BME280;24125;47.482;8.770;2023-04-15T06:25:52;95317.91;;;10.59;76.38
36386;BME280;24125;47.482;8.770;2023-04-15T06:28:25;95319.00;;;10.74;76.36
36386;BME280;24125;47.482;8.770;2023-04-15T06:30:58;95314.78;;;10.88;76.51
36386;BME280;24125;47.482;8.770;2023-04-15T06:33:33;95321.63;;;11.05;76.09
36386;BME280;24125;47.482;8.770;2023-04-15T06:36:06;95314.69;;;11.20;76.20
36386;BME280;24125;47.482;8.770;2023-04-15T06:38:39;95313.44;;;11.33;76.47
36386;BME280;24125;47.482;8.770;2023-04-15T06:41:11;95313.66;;;11.44;76.52
36386;BME280;24125;47.482;8.770;2023-04-15T06:43:44;95315.44;;;11.55;76.35
36386;BME280;24125;47.482;8.770;2023-04-15T06:46:17;95321.78;;;11.66;75.83
36386;BME280;24125;47.482;8.770;2023-04-15T06:48:52;95312.44;;;11.76;75.93
36386;BME280;24125;47.482;8.770;2023-04-15T06:51:24;95311.84;;;11.86;75.97
36386;BME280;24125;47.482;8.770;2023-04-15T06:53:57;95316.63;;;11.96;75.76
36386;BME280;24125;47.482;8.770;2023-04-15T06:56:30;95318.72;;;12.06;76.59
36386;BME280;24125;47.482;8.770;2023-04-15T06:59:03;95313.22;;;12.19;76.29
36386;BME280;24125;47.482;8.770;2023-04-15T07:01:35;95322.97;;;12.30;77.26
36386;BME280;24125;47.482;8.770;2023-04-15T07:04:09;95314.78;;;12.42;76.52
36386;BME280;24125;47.482;8.770;2023-04-15T07:06:42;95306.19;;;12.56;76.97
36386;BME280;24125;47.482;8.770;2023-04-15T07:09:15;95312.56;;;12.71;76.45
36386;BME280;24125;47.482;8.770;2023-04-15T07:11:48;95313.53;;;12.85;76.20
36386;BME280;24125;47.482;8.770;2023-04-15T07:14:21;95316.41;;;13.00;76.49
36386;BME280;24125;47.482;8.770;2023-04-15T07:16:54;95309.31;;;13.11;76.36
36386;BME280;24125;47.482;8.770;2023-04-15T07:19:29;95310.31;;;13.26;76.17
36386;BME280;24125;47.482;8.770;2023-04-15T07:22:02;95310.44;;;13.36;75.67
36386;BME280;24125;47.482;8.770;2023-04-15T07:24:35;95302.56;;;13.47;75.75
36386;BME280;24125;47.482;8.770;2023-04-15T07:27:08;95308.41;;;13.56;75.50
36386;BME280;24125;47.482;8.770;2023-04-15T07:29:40;95303.53;;;13.65;74.94
36386;BME280;24125;47.482;8.770;2023-04-15T07:32:13;95307.06;;;13.73;74.95
36386;BME280;24125;47.482;8.770;2023-04-15T07:34:47;95311.38;;;13.81;74.70
36386;BME280;24125;47.482;8.770;2023-04-15T07:37:20;95311.50;;;13.91;74.96
36386;BME280;24125;47.482;8.770;2023-04-15T07:39:53;95310.81;;;13.98;75.26
36386;BME280;24125;47.482;8.770;2023-04-15T07:42:26;95317.03;;;14.06;74.84
36386;BME280;24125;47.482;8.770;2023-04-15T07:44:59;95316.31;;;14.12;74.57
36386;BME280;24125;47.482;8.770;2023-04-15T07:47:32;95313.31;;;14.17;74.24
36386;BME280;24125;47.482;8.770;2023-04-15T07:50:08;95307.97;;;14.21;73.58
36386;BME280;24125;47.482;8.770;2023-04-15T07:52:41;95309.91;;;14.24;73.06
36386;BME280;24125;47.482;8.770;2023-04-15T07:55:14;95306.88;;;14.25;73.34
36386;BME280;24125;47.482;8.770;2023-04-15T07:57:49;95310.72;;;14.28;73.00
36386;BME280;24125;47.482;8.770;2023-04-15T08:00:22;95311.91;;;14.30;72.75
36386;BME280;24125;47.482;8.770;2023-04-15T08:02:55;95307.72;;;14.33;71.62
36386;BME280;24125;47.482;8.770;2023-04-15T08:05:31;95309.25;;;14.34;72.09
36386;BME280;24125;47.482;8.770;2023-04-15T08:08:04;95308.13;;;14.35;72.48
36386;BME280;24125;47.482;8.770;2023-04-15T08:10:37;95311.94;;;14.38;72.19
36386;BME280;24125;47.482;8.770;2023-04-15T08:13:10;95312.41;;;14.40;71.71
36386;BME280;24125;47.482;8.770;2023-04-15T08:15:43;95310.53;;;14.44;72.50
36386;BME280;24125;47.482;8.770;2023-04-15T08:18:15;95310.53;;;14.47;72.65
36386;BME280;24125;47.482;8.770;2023-04-15T08:20:49;95317.50;;;14.52;73.32
36386;BME280;24125;47.482;8.770;2023-04-15T08:23:22;95313.69;;;14.56;72.43
36386;BME280;24125;47.482;8.770;2023-04-15T08:25:55;95312.19;;;14.62;72.79
36386;BME280;24125;47.482;8.770;2023-04-15T08:28:28;95315.34;;;14.68;73.35
36386;BME280;24125;47.482;8.770;2023-04-15T08:31:01;95313.47;;;14.76;72.88
36386;BME280;24125;47.482;8.770;2023-04-15T08:33:34;95320.03;;;14.82;72.90
36386;BME280;24125;47.482;8.770;2023-04-15T08:36:08;95319.72;;;14.90;73.32
36386;BME280;24125;47.482;8.770;2023-04-15T08:38:43;95325.53;;;14.99;73.53
36386;BME280;24125;47.482;8.770;2023-04-15T08:41:18;95322.53;;;15.08;72.36
36386;BME280;24125;47.482;8.770;2023-04-15T08:43:53;95323.75;;;15.18;73.06
36386;BME280;24125;47.482;8.770;2023-04-15T08:46:26;95334.16;;;15.26;72.95
36386;BME280;24125;47.482;8.770;2023-04-15T08:48:59;95327.69;;;15.34;72.61
36386;BME280;24125;47.482;8.770;2023-04-15T08:51:36;95332.72;;;15.43;71.80
36386;BME280;24125;47.482;8.770;2023-04-15T08:54:10;95324.31;;;15.52;69.99
36386;BME280;24125;47.482;8.770;2023-04-15T08:56:43;95326.69;;;15.60;72.73
36386;BME280;24125;47.482;8.770;2023-04-15T08:59:16;95322.88;;;15.65;73.02
36386;BME280;24125;47.482;8.770;2023-04-15T09:01:49;95322.13;;;15.75;73.37
36386;BME280;24125;47.482;8.770;2023-04-15T09:04:22;95315.63;;;15.83;70.23
36386;BME280;24125;47.482;8.770;2023-04-15T09:06:56;95315.69;;;15.94;68.57
36386;BME280;24125;47.482;8.770;2023-04-15T09:09:29;95327.66;;;16.07;73.20
36386;BME280;24125;47.482;8.770;2023-04-15T09:12:01;95323.81;;;16.15;70.82
36386;BME280;24125;47.482;8.770;2023-04-15T09:14:34;95326.16;;;16.27;71.71
36386;BME280;24125;47.482;8.770;2023-04-15T09:17:09;95325.78;;;16.36;71.34
36386;BME280;24125;47.482;8.770;2023-04-15T09:19:42;95328.88;;;16.48;71.94
36386;BME280;24125;47.482;8.770;2023-04-15T09:22:16;95332.34;;;16.56;72.42
36386;BME280;24125;47.482;8.770;2023-04-15T09:24:49;95340.09;;;16.65;71.99
36386;BME280;24125;47.482;8.770;2023-04-15T09:27:21;95337.78;;;16.74;72.78
36386;BME280;24125;47.482;8.770;2023-04-15T09:29:54;95339.34;;;16.85;73.09
36386;BME280;24125;47.482;8.770;2023-04-15T09:32:27;95332.78;;;16.97;74.30
36386;BME280;24125;47.482;8.770;2023-04-15T09:35:05;95339.72;;;17.09;73.45
36386;BME280;24125;47.482;8.770;2023-04-15T09:37:43;95337.75;;;17.23;74.30
36386;BME280;24125;47.482;8.770;2023-04-15T09:40:29;95338.91;;;17.37;74.42
36386;BME280;24125;47.482;8.770;2023-04-15T09:43:03;95346.97;;;17.51;70.44
36386;BME280;24125;47.482;8.770;2023-04-15T09:45:36;95344.66;;;17.63;73.89
36386;BME280;24125;47.482;8.770;2023-04-15T09:48:16;95343.44;;;17.75;72.82
36386;BME280;24125;47.482;8.770;2023-04-15T09:50:51;95336.84;;;17.87;73.83
36386;BME280;24125;47.482;8.770;2023-04-15T09:53:26;95344.50;;;17.99;70.59
36386;BME280;24125;47.482;8.770;2023-04-15T09:56:02;95349.09;;;18.13;74.50
36386;BME280;24125;47.482;8.770;2023-04-15T09:58:37;95342.47;;;18.24;72.75
36386;BME280;24125;47.482;8.770;2023-04-15T10:01:12;95345.09;;;18.35;71.77
36386;BME280;24125;47.482;8.770;2023-04-15T10:03:45;95343.13;;;18.42;69.06
36386;BME280;24125;47.482;8.770;2023-04-15T10:06:18;95346.16;;;18.52;70.94
36386;BME280;24125;47.482;8.770;2023-04-15T10:08:53;95339.94;;;18.62;72.91
36386;BME280;24125;47.482;8.770;2023-04-15T10:11:27;95345.31;;;18.69;73.11
36386;BME280;24125;47.482;8.770;2023-04-15T10:14:02;95342.53;;;18.79;71.99
36386;BME280;24125;47.482;8.770;2023-04-15T10:16:35;95337.03;;;18.90;69.05
36386;BME280;24125;47.482;8.770;2023-04-15T10:19:13;95335.81;;;19.02;71.90
36386;BME280;24125;47.482;8.770;2023-04-15T10:21:47;95348.81;;;19.14;71.64
36386;BME280;24125;47.482;8.770;2023-04-15T10:24:22;95344.84;;;19.26;71.44
36386;BME280;24125;47.482;8.770;2023-04-15T10:26:55;95343.56;;;19.37;70.97
36386;BME280;24125;47.482;8.770;2023-04-15T10:29:29;95337.31;;;19.47;67.68
36386;BME280;24125;47.482;8.770;2023-04-15T10:32:01;95342.25;;;19.56;69.09
36386;BME280;24125;47.482;8.770;2023-04-15T10:34:35;95347.19;;;19.65;66.60
36386;BME280;24125;47.482;8.770;2023-04-15T10:37:09;95347.88;;;19.72;69.94
36386;BME280;24125;47.482;8.770;2023-04-15T10:39:43;95352.09;;;19.77;71.25
36386;BME280;24125;47.482;8.770;2023-04-15T10:42:17;95343.19;;;19.80;71.45
36386;BME280;24125;47.482;8.770;2023-04-15T10:44:51;95352.38;;;19.86;72.71
36386;BME280;24125;47.482;8.770;2023-04-15T10:47:27;95350.00;;;19.91;70.86
36386;BME280;24125;47.482;8.770;2023-04-15T10:50:00;95359.53;;;20.03;71.54
36386;BME280;24125;47.482;8.770;2023-04-15T10:52:34;95359.41;;;20.14;68.69
36386;BME280;24125;47.482;8.770;2023-04-15T10:55:13;95349.63;;;20.23;67.82
36386;BME280;24125;47.482;8.770;2023-04-15T10:57:48;95360.31;;;20.34;65.92
36386;BME280;24125;47.482;8.770;2023-04-15T11:00:23;95355.56;;;20.42;64.66
36386;BME280;24125;47.482;8.770;2023-04-15T11:02:57;95362.88;;;20.48;68.10
36386;BME280;24125;47.482;8.770;2023-04-15T11:08:19;95365.50;;;20.52;64.07
36386;BME280;24125;47.482;8.770;2023-04-15T11:10:53;95356.22;;;20.53;66.69
36386;BME280;24125;47.482;8.770;2023-04-15T11:13:28;95368.19;;;20.55;69.42
36386;BME280;24125;47.482;8.770;2023-04-15T11:16:03;95363.56;;;20.52;63.18
36386;BME280;24125;47.482;8.770;2023-04-15T11:18:36;95367.44;;;20.51;65.17
36386;BME280;24125;47.482;8.770;2023-04-15T11:21:09;95371.78;;;20.49;65.05
36386;BME280;24125;47.482;8.770;2023-04-15T11:23:42;95372.56;;;20.46;66.95
36386;BME280;24125;47.482;8.770;2023-04-15T11:26:19;95382.34;;;20.40;66.91
36386;BME280;24125;47.482;8.770;2023-04-15T11:28:57;95372.31;;;20.33;66.12
36386;BME280;24125;47.482;8.770;2023-04-15T11:31:32;95389.44;;;20.26;66.02
36386;BME280;24125;47.482;8.770;2023-04-15T11:34:04;95387.59;;;20.20;66.14
36386;BME280;24125;47.482;8.770;2023-04-15T11:36:37;95389.63;;;20.12;62.61
36386;BME280;24125;47.482;8.770;2023-04-15T11:39:10;95382.75;;;20.04;63.42
36386;BME280;24125;47.482;8.770;2023-04-15T11:41:44;95386.66;;;20.00;67.07
36386;BME280;24125;47.482;8.770;2023-04-15T11:44:17;95397.16;;;19.98;70.03
36386;BME280;24125;47.482;8.770;2023-04-15T11:46:50;95395.97;;;19.98;71.29
36386;BME280;24125;47.482;8.770;2023-04-15T11:49:27;95404.81;;;20.03;73.18
36386;BME280;24125;47.482;8.770;2023-04-15T11:51:59;95401.72;;;20.04;71.28
36386;BME280;24125;47.482;8.770;2023-04-15T11:54:32;95408.63;;;20.09;70.32
36386;BME280;24125;47.482;8.770;2023-04-15T11:57:06;95414.38;;;20.14;70.74
36386;BME280;24125;47.482;8.770;2023-04-15T11:59:42;95422.44;;;20.21;71.86
36386;BME280;24125;47.482;8.770;2023-04-15T12:02:16;95421.56;;;20.28;72.25
36386;BME280;24125;47.482;8.770;2023-04-15T12:04:49;95421.88;;;20.37;73.57
36386;BME280;24125;47.482;8.770;2023-04-15T12:07:22;95431.47;;;20.42;74.21
36386;BME280;24125;47.482;8.770;2023-04-15T12:09:56;95438.34;;;20.50;73.38
36386;BME280;24125;47.482;8.770;2023-04-15T12:12:30;95434.03;;;20.56;72.19
36386;BME280;24125;47.482;8.770;2023-04-15T12:15:03;95442.44;;;20.65;73.40
36386;BME280;24125;47.482;8.770;2023-04-15T12:17:36;95439.22;;;20.74;73.40
36386;BME280;24125;47.482;8.770;2023-04-15T12:20:24;95434.84;;;20.83;72.78
36386;BME280;24125;47.482;8.770;2023-04-15T12:23:04;95442.41;;;20.95;73.64
36386;BME280;24125;47.482;8.770;2023-04-15T12:25:36;95451.56;;;21.05;73.41
36386;BME280;24125;47.482;8.770;2023-04-15T12:28:11;95441.38;;;21.13;66.79
36386;BME280;24125;47.482;8.770;2023-04-15T12:30:47;95449.38;;;21.23;69.35
36386;BME280;24125;47.482;8.770;2023-04-15T12:33:20;95457.41;;;21.30;68.78
36386;BME280;24125;47.482;8.770;2023-04-15T12:35:53;95461.19;;;21.36;71.37
36386;BME280;24125;47.482;8.770;2023-04-15T12:38:25;95470.06;;;21.40;72.79
36386;BME280;24125;47.482;8.770;2023-04-15T12:40:58;95470.44;;;21.42;73.10
36386;BME280;24125;47.482;8.770;2023-04-15T12:43:32;95475.09;;;21.42;70.98
36386;BME280;24125;47.482;8.770;2023-04-15T12:46:05;95471.66;;;21.38;69.78
36386;BME280;24125;47.482;8.770;2023-04-15T12:48:38;95472.06;;;21.36;66.93
36386;BME280;24125;47.482;8.770;2023-04-15T12:51:11;95480.63;;;21.35;71.66
36386;BME280;24125;47.482;8.770;2023-04-15T12:53:44;95493.44;;;21.34;69.19
36386;BME280;24125;47.482;8.770;2023-04-15T12:56:18;95489.94;;;21.34;69.17
36386;BME280;24125;47.482;8.770;2023-04-15T12:58:52;95502.00;;;21.33;71.10
36386;BME280;24125;47.482;8.770;2023-04-15T13:01:24;95500.81;;;21.34;70.54
36386;BME280;24125;47.482;8.770;2023-04-15T13:03:57;95500.81;;;21.34;70.76
36386;BME280;24125;47.482;8.770;2023-04-15T13:06:30;95507.00;;;21.34;70.65
36386;BME280;24125;47.482;8.770;2023-04-15T13:09:03;95501.22;;;21.32;71.14
36386;BME280;24125;47.482;8.770;2023-04-15T13:11:36;95504.75;;;21.29;74.33
36386;BME280;24125;47.482;8.770;2023-04-15T13:14:11;95508.75;;;21.21;73.23
36386;BME280;24125;47.482;8.770;2023-04-15T13:16:44;95508.84;;;21.10;71.22
36386;BME280;24125;47.482;8.770;2023-04-15T13:19:16;95524.94;;;20.98;69.15
36386;BME280;24125;47.482;8.770;2023-04-15T13:21:49;95521.66;;;20.83;68.42
36386;BME280;24125;47.482;8.770;2023-04-15T13:24:22;95514.84;;;20.68;67.58
36386;BME280;24125;47.482;8.770;2023-04-15T13:26:55;95527.03;;;20.53;65.99
36386;BME280;24125;47.482;8.770;2023-04-15T13:29:30;95529.16;;;20.34;66.95
36386;BME280;24125;47.482;8.770;2023-04-15T13:32:03;95532.41;;;20.15;68.50
36386;BME280;24125;47.482;8.770;2023-04-15T13:34:36;95541.13;;;19.96;69.20
36386;BME280;24125;47.482;8.770;2023-04-15T13:37:09;95535.88;;;19.78;69.13
36386;BME280;24125;47.482;8.770;2023-04-15T13:39:42;95536.78;;;19.61;69.21
36386;BME280;24125;47.482;8.770;2023-04-15T13:42:14;95533.78;;;19.45;69.72